createdAt,value
2022-10-07T00:00:32.813Z,100738.06
2022-10-07T00:01:34.271Z,100735.34
2022-10-07T00:02:35.819Z,100739.00
2022-10-07T00:03:37.301Z,100733.56
2022-10-07T00:04:38.773Z,100736.78
2022-10-07T00:05:40.238Z,100732.72
2022-10-07T00:06:41.697Z,100737.53
2022-10-07T00:07:43.285Z,100734.31
2022-10-07T00:08:47.677Z,100730.47
2022-10-07T00:09:49.113Z,100733.16
2022-10-07T00:10:50.548Z,100736.31
2022-10-07T00:11:51.988Z,100740.78
2022-10-07T00:12:53.832Z,100735.72
2022-10-07T00:13:58.073Z,100731.47
2022-10-07T00:14:59.531Z,100731.41
2022-10-07T00:16:04.682Z,100733.00
2022-10-07T00:17:06.104Z,100732.81
2022-10-07T00:18:07.474Z,100731.88
2022-10-07T00:19:12.789Z,100734.31
2022-10-07T00:20:14.240Z,100730.94
2022-10-07T00:21:16.978Z,100727.28
2022-10-07T00:22:18.424Z,100735.31
2022-10-07T00:23:19.763Z,100734.03
2022-10-07T00:24:21.212Z,100736.38
2022-10-07T00:25:22.643Z,100729.50
2022-10-07T00:26:27.948Z,100733.28
2022-10-07T00:27:29.417Z,100732.59
2022-10-07T00:28:31.428Z,100730.81
2022-10-07T00:29:32.969Z,100729.69
2022-10-07T00:30:34.434Z,100730.53
2022-10-07T00:31:36.745Z,100728.84
2022-10-07T00:32:38.179Z,100728.28
2022-10-07T00:33:39.965Z,100723.78
2022-10-07T00:34:42.281Z,100721.97
2022-10-07T00:35:43.676Z,100726.69
2022-10-07T00:36:45.025Z,100718.53
2022-10-07T00:37:47.037Z,100717.66
2022-10-07T00:39:03.657Z,100718.97
2022-10-07T00:40:05.453Z,100724.31
2022-10-07T00:41:09.029Z,100721.88
2022-10-07T00:42:13.518Z,100716.53
2022-10-07T00:43:29.309Z,100720.66
2022-10-07T00:44:43.842Z,100716.84
2022-10-07T00:45:45.357Z,100713.94
2022-10-07T00:46:47.523Z,100715.34
2022-10-07T00:47:50.172Z,100716.09
2022-10-07T00:48:51.749Z,100707.47
2022-10-07T00:50:08.998Z,100712.13
2022-10-07T00:51:11.279Z,100705.94
2022-10-07T00:52:15.632Z,100712.06
2022-10-07T00:53:18.059Z,100706.03
2022-10-07T00:54:20.824Z,100702.75
2022-10-07T00:55:26.306Z,100703.69
2022-10-07T00:56:29.643Z,100710.72
2022-10-07T00:57:32.456Z,100702.94
2022-10-07T00:58:37.929Z,100701.72
2022-10-07T00:59:41.222Z,100694.31
2022-10-07T01:00:43.128Z,100701.81
2022-10-07T01:01:46.135Z,100702.09
2022-10-07T01:02:47.754Z,100702.88
2022-10-07T01:03:49.381Z,100702.19
2022-10-07T01:04:54.387Z,100699.47
2022-10-07T01:05:55.846Z,100695.25
2022-10-07T01:06:57.223Z,100703.97
2022-10-07T01:07:59.514Z,100698.03
2022-10-07T01:09:01.146Z,100693.56
2022-10-07T01:10:04.495Z,100694.47
2022-10-07T01:11:21.197Z,100692.31
2022-10-07T01:12:53.566Z,100694.38
2022-10-07T01:14:22.513Z,100695.03
2022-10-07T01:15:51.087Z,100692.84
2022-10-07T01:17:08.799Z,100691.25
2022-10-07T01:18:18.237Z,100694.22
2022-10-07T01:19:53.275Z,100693.84
2022-10-07T01:21:05.470Z,100687.34
2022-10-07T01:22:36.063Z,100692.69
2022-10-07T01:24:01.510Z,100695.31
2022-10-07T01:25:27.745Z,100688.94
2022-10-07T01:26:50.935Z,100688.69
2022-10-07T01:28:01.709Z,100691.31
2022-10-07T01:29:12.918Z,100681.00
2022-10-07T01:30:14.632Z,100683.97
2022-10-07T01:31:21.097Z,100680.59
2022-10-07T01:32:43.680Z,100682.28
2022-10-07T01:33:47.657Z,100680.84
2022-10-07T01:34:51.612Z,100685.53
2022-10-07T01:35:55.976Z,100685.53
2022-10-07T01:36:59.302Z,100678.47
2022-10-07T01:38:10.679Z,100673.22
2022-10-07T01:39:16.222Z,100673.03
2022-10-07T01:40:26.101Z,100672.13
2022-10-07T01:41:28.605Z,100671.47
2022-10-07T01:42:30.601Z,100670.78
2022-10-07T01:43:33.096Z,100675.97
2022-10-07T01:44:35.303Z,100666.28
2022-10-07T01:45:40.575Z,100671.34
2022-10-07T01:46:43.342Z,100673.97
2022-10-07T01:47:45.094Z,100665.84
2022-10-07T01:48:47.125Z,100665.00
2022-10-07T01:49:49.132Z,100660.50
2022-10-07T01:50:52.196Z,100666.31
2022-10-07T01:52:38.878Z,100662.94
2022-10-07T01:53:50.218Z,100665.84
2022-10-07T01:55:13.533Z,100661.34
2022-10-07T01:56:30.499Z,100661.34
2022-10-07T01:57:32.127Z,100660.25
2022-10-07T01:58:55.093Z,100655.00
2022-10-07T02:00:05.707Z,100657.63
2022-10-07T02:01:37.141Z,100644.00
2022-10-07T02:02:47.526Z,100643.88
2022-10-07T02:04:21.459Z,100649.72
2022-10-07T02:05:45.767Z,100648.03
2022-10-07T02:07:11.905Z,100654.41
2022-10-07T02:08:27.677Z,100651.22
2022-10-07T02:09:55.747Z,100652.22
2022-10-07T02:11:22.526Z,100645.09
2022-10-07T02:12:37.674Z,100644.16
2022-10-07T02:14:08.786Z,100648.66
2022-10-07T02:15:19.449Z,100642.66
2022-10-07T02:16:27.669Z,100636.38
2022-10-07T02:17:33.719Z,100638.25
2022-10-07T02:18:39.725Z,100642.47
2022-10-07T02:19:46.604Z,100640.78
2022-10-07T02:20:51.680Z,100642.47
2022-10-07T02:21:57.206Z,100632.81
2022-10-07T02:23:01.585Z,100644.06
2022-10-07T02:24:05.111Z,100634.50
2022-10-07T02:25:08.450Z,100632.81
2022-10-07T02:26:12.628Z,100635.53
2022-10-07T02:27:19.411Z,100637.47
2022-10-07T02:28:25.234Z,100632.41
2022-10-07T02:29:34.574Z,100632.22
2022-10-07T02:30:37.506Z,100624.34
2022-10-07T02:31:40.757Z,100627.91
2022-10-07T02:32:46.686Z,100634.09
2022-10-07T02:33:48.531Z,100628.09
2022-10-07T02:34:57.898Z,100633.56
2022-10-07T02:36:04.537Z,100629.03
2022-10-07T02:37:14.379Z,100629.19
2022-10-07T02:38:17.338Z,100631.03
2022-10-07T02:39:21.019Z,100617.47
2022-10-07T02:40:35.375Z,100624.91
2022-10-07T02:41:51.388Z,100626.41
2022-10-07T02:43:04.183Z,100626.16
2022-10-07T02:44:26.795Z,100625.97
2022-10-07T02:45:38.272Z,100624.34
2022-10-07T02:46:49.716Z,100627.28
2022-10-07T02:48:08.345Z,100624.81
2022-10-07T02:49:14.090Z,100624.31
2022-10-07T02:50:23.808Z,100630.31
2022-10-07T02:52:08.924Z,100626.84
2022-10-07T02:53:12.646Z,100629.81
2022-10-07T02:54:20.277Z,100620.44
2022-10-07T02:55:25.607Z,100628.25
2022-10-07T02:56:28.049Z,100625.25
2022-10-07T02:57:33.312Z,100625.16
2022-10-07T02:58:36.094Z,100625.44
2022-10-07T02:59:39.294Z,100623.00
2022-10-07T03:00:46.399Z,100622.25
2022-10-07T03:01:54.024Z,100625.13
2022-10-07T03:02:58.792Z,100614.69
2022-10-07T03:04:07.626Z,100620.13
2022-10-07T03:05:09.477Z,100608.53
2022-10-07T03:06:17.877Z,100613.44
2022-10-07T03:07:20.339Z,100604.50
2022-10-07T03:08:22.434Z,100608.19
2022-10-07T03:09:25.741Z,100606.50
2022-10-07T03:10:27.371Z,100607.91
2022-10-07T03:11:28.835Z,100611.56
2022-10-07T03:12:31.058Z,100614.63
2022-10-07T03:13:32.683Z,100613.09
2022-10-07T03:14:36.464Z,100613.19
2022-10-07T03:15:42.348Z,100605.22
2022-10-07T03:16:46.280Z,100603.28
2022-10-07T03:17:47.949Z,100611.91
2022-10-07T03:18:49.369Z,100607.75
2022-10-07T03:20:00.801Z,100618.44
2022-10-07T03:21:02.179Z,100613.78
2022-10-07T03:22:03.691Z,100612.66
2022-10-07T03:23:08.133Z,100611.75
2022-10-07T03:24:09.805Z,100609.28
2022-10-07T03:25:16.915Z,100605.13
2022-10-07T03:26:18.748Z,100608.44
2022-10-07T03:27:21.339Z,100610.88
2022-10-07T03:28:25.423Z,100602.59
2022-10-07T03:29:26.854Z,100610.72
2022-10-07T03:30:28.323Z,100611.84
2022-10-07T03:31:29.764Z,100611.09
2022-10-07T03:32:33.319Z,100610.22
2022-10-07T03:33:34.717Z,100606.03
2022-10-07T03:34:36.138Z,100603.31
2022-10-07T03:35:37.466Z,100601.78
2022-10-07T03:36:38.907Z,100600.94
2022-10-07T03:37:42.733Z,100596.53
2022-10-07T03:38:45.080Z,100603.31
2022-10-07T03:39:49.770Z,100596.38
2022-10-07T03:40:51.844Z,100599.44
2022-10-07T03:41:53.517Z,100600.44
2022-10-07T03:42:55.102Z,100612.47
2022-10-07T03:43:56.588Z,100605.16
2022-10-07T03:44:59.655Z,100606.78
2022-10-07T03:46:02.054Z,100605.00
2022-10-07T03:47:10.511Z,100610.22
2022-10-07T03:48:12.631Z,100604.84
2022-10-07T03:49:14.309Z,100604.66
2022-10-07T03:50:15.815Z,100601.94
2022-10-07T03:51:17.232Z,100599.47
2022-10-07T03:52:19.316Z,100604.22
2022-10-07T03:53:21.244Z,100594.66
2022-10-07T03:54:22.617Z,100591.22
2022-10-07T03:55:25.085Z,100584.19
2022-10-07T03:56:27.433Z,100584.63
2022-10-07T03:57:28.993Z,100594.59
2022-10-07T03:58:32.519Z,100587.66
2022-10-07T03:59:34.310Z,100590.13
2022-10-07T04:00:35.682Z,100586.56
2022-10-07T04:01:37.196Z,100579.50
2022-10-07T04:02:38.695Z,100580.31
2022-10-07T04:03:40.310Z,100581.94
2022-10-07T04:04:42.221Z,100584.88
2022-10-07T04:05:43.567Z,100589.53
2022-10-07T04:06:45.102Z,100589.16
2022-10-07T04:07:49.804Z,100591.78
2022-10-07T04:08:53.763Z,100587.59
2022-10-07T04:09:55.235Z,100586.75
2022-10-07T04:10:57.300Z,100580.56
2022-10-07T04:11:58.823Z,100581.50
2022-10-07T04:13:00.350Z,100573.63
2022-10-07T04:14:01.809Z,100574.81
2022-10-07T04:15:05.035Z,100568.06
2022-10-07T04:16:07.604Z,100574.16
2022-10-07T04:17:09.178Z,100579.38
2022-10-07T04:18:10.968Z,100577.69
2022-10-07T04:19:12.579Z,100581.19
2022-10-07T04:20:15.974Z,100589.19
2022-10-07T04:21:17.850Z,100571.63
2022-10-07T04:22:19.277Z,100574.16
2022-10-07T04:23:20.699Z,100565.34
2022-10-07T04:24:22.177Z,100568.63
2022-10-07T04:25:23.680Z,100559.00
2022-10-07T04:26:25.706Z,100566.38
2022-10-07T04:27:50.100Z,100555.25
2022-10-07T04:28:48.620Z,100556.38
2022-10-07T04:29:53.554Z,100547.13
2022-10-07T04:30:55.176Z,100561.13
2022-10-07T04:32:02.257Z,100559.94
2022-10-07T04:33:04.200Z,100555.63
2022-10-07T04:34:06.418Z,100552.72
2022-10-07T04:35:11.077Z,100568.63
2022-10-07T04:36:13.408Z,100558.16
2022-10-07T04:37:23.075Z,100559.94
2022-10-07T04:38:28.260Z,100565.25
2022-10-07T04:39:55.981Z,100564.75
2022-10-07T04:40:52.876Z,100554.50
2022-10-07T04:41:55.744Z,100557.19
2022-10-07T04:43:03.102Z,100555.44
2022-10-07T04:44:04.431Z,100563.38
2022-10-07T04:45:10.722Z,100554.00
2022-10-07T04:46:12.818Z,100556.63
2022-10-07T04:47:18.115Z,100557.72
2022-10-07T04:48:23.120Z,100560.88
2022-10-07T04:49:24.868Z,100566.78
2022-10-07T04:50:28.400Z,100556.03
2022-10-07T04:51:33.071Z,100561.19
2022-10-07T04:52:39.216Z,100552.25
2022-10-07T04:53:41.126Z,100546.72
2022-10-07T04:54:43.520Z,100553.63
2022-10-07T04:55:48.234Z,100543.16
2022-10-07T04:56:49.931Z,100542.31
2022-10-07T04:57:53.219Z,100549.03
2022-10-07T04:58:54.572Z,100551.56
2022-10-07T04:59:56.450Z,100547.72
2022-10-07T05:01:00.476Z,100553.75
2022-10-07T05:02:03.098Z,100554.41
2022-10-07T05:03:06.872Z,100551.88
2022-10-07T05:04:08.490Z,100555.44
2022-10-07T05:05:10.136Z,100551.97
2022-10-07T05:06:11.780Z,100549.34
2022-10-07T05:07:15.244Z,100544.09
2022-10-07T05:08:17.507Z,100545.78
2022-10-07T05:09:19.729Z,100545.78
2022-10-07T05:10:22.353Z,100546.63
2022-10-07T05:11:24.140Z,100545.41
2022-10-07T05:12:31.497Z,100540.31
2022-10-07T05:13:33.326Z,100544.28
2022-10-07T05:14:35.995Z,100543.84
2022-10-07T05:15:47.628Z,100541.88
2022-10-07T05:16:49.890Z,100538.13
2022-10-07T05:17:51.957Z,100538.25
2022-10-07T05:18:53.401Z,100539.19
2022-10-07T05:19:54.869Z,100540.28
2022-10-07T05:20:56.503Z,100539.53
2022-10-07T05:21:59.658Z,100545.06
2022-10-07T05:23:01.531Z,100537.97
2022-10-07T05:24:02.893Z,100541.69
2022-10-07T05:25:09.279Z,100542.91
2022-10-07T05:26:10.832Z,100539.59
2022-10-07T05:27:15.314Z,100531.09
2022-10-07T05:28:17.588Z,100531.72
2022-10-07T05:29:19.176Z,100537.56
2022-10-07T05:30:24.038Z,100541.22
2022-10-07T05:31:25.573Z,100530.47
2022-10-07T05:32:29.659Z,100535.78
2022-10-07T05:33:31.038Z,100543.56
2022-10-07T05:34:33.172Z,100546.13
2022-10-07T05:35:34.644Z,100541.50
2022-10-07T05:36:35.989Z,100546.50
2022-10-07T05:37:39.523Z,100542.78
2022-10-07T05:38:41.184Z,100537.44
2022-10-07T05:39:42.841Z,100531.25
2022-10-07T05:40:58.869Z,100538.84
2022-10-07T05:42:01.565Z,100536.97
2022-10-07T05:43:10.151Z,100538.41
2022-10-07T05:44:11.988Z,100539.06
2022-10-07T05:45:14.235Z,100546.69
2022-10-07T05:46:18.473Z,100544.59
2022-10-07T05:47:24.525Z,100539.09
2022-10-07T05:48:28.324Z,100538.25
2022-10-07T05:49:29.957Z,100531.97
2022-10-07T05:50:31.564Z,100544.75
2022-10-07T05:51:33.477Z,100534.91
2022-10-07T05:52:35.494Z,100537.53
2022-10-07T05:53:37.403Z,100536.41
2022-10-07T05:54:38.900Z,100546.06
2022-10-07T05:55:40.394Z,100536.47
2022-10-07T05:56:42.203Z,100533.84
2022-10-07T05:57:43.906Z,100528.50
2022-10-07T05:58:46.781Z,100537.88
2022-10-07T05:59:49.105Z,100535.84
2022-10-07T06:00:55.281Z,100531.88
2022-10-07T06:01:57.322Z,100538.47
2022-10-07T06:02:58.931Z,100537.34
2022-10-07T06:04:00.471Z,100537.06
2022-10-07T06:05:06.251Z,100537.91
2022-10-07T06:06:08.035Z,100535.00
2022-10-07T06:07:10.722Z,100533.78
2022-10-07T06:08:12.891Z,100543.06
2022-10-07T06:09:14.877Z,100534.69
2022-10-07T06:10:16.606Z,100540.13
2022-10-07T06:11:18.679Z,100535.19
2022-10-07T06:12:20.081Z,100539.34
2022-10-07T06:13:22.770Z,100533.38
2022-10-07T06:14:24.340Z,100524.06
2022-10-07T06:15:25.693Z,100530.06
2022-10-07T06:16:27.680Z,100528.09
2022-10-07T06:17:29.387Z,100532.13
2022-10-07T06:18:35.514Z,100527.41
2022-10-07T06:19:37.776Z,100524.56
2022-10-07T06:20:39.290Z,100528.69
2022-10-07T06:21:40.919Z,100532.28
2022-10-07T06:22:42.264Z,100535.00
2022-10-07T06:23:44.240Z,100528.38
2022-10-07T06:24:45.813Z,100529.53
2022-10-07T06:25:55.443Z,100525.28
2022-10-07T06:26:56.924Z,100526.84
2022-10-07T06:27:59.133Z,100528.53
2022-10-07T06:29:01.802Z,100532.75
2022-10-07T06:30:03.783Z,100530.22
2022-10-07T06:31:07.512Z,100529.16
2022-10-07T06:32:10.695Z,100533.78
2022-10-07T06:33:13.765Z,100529.25
2022-10-07T06:34:15.333Z,100533.19
2022-10-07T06:35:16.784Z,100529.00
2022-10-07T06:36:18.577Z,100531.56
2022-10-07T06:37:21.360Z,100518.69
2022-10-07T06:38:23.984Z,100529.25
2022-10-07T06:39:25.481Z,100515.09
2022-10-07T06:40:26.943Z,100529.16
2022-10-07T06:41:28.396Z,100522.13
2022-10-07T06:42:42.070Z,100518.22
2022-10-07T06:44:02.119Z,100514.28
2022-10-07T06:45:04.986Z,100516.81
2022-10-07T06:46:08.182Z,100514.06
2022-10-07T06:47:11.859Z,100522.72
2022-10-07T06:48:15.568Z,100517.53
2022-10-07T06:49:17.023Z,100522.59
2022-10-07T06:50:18.483Z,100523.13
2022-10-07T06:51:21.237Z,100516.34
2022-10-07T06:52:24.269Z,100521.59
2022-10-07T06:53:26.998Z,100513.78
2022-10-07T06:54:28.898Z,100516.19
2022-10-07T06:55:31.015Z,100510.03
2022-10-07T06:56:32.607Z,100516.16
2022-10-07T06:57:45.323Z,100522.31
2022-10-07T06:58:48.171Z,100519.00
2022-10-07T06:59:51.046Z,100519.28
2022-10-07T07:00:56.689Z,100529.66
2022-10-07T07:01:58.599Z,100517.50
2022-10-07T07:03:00.447Z,100523.09
2022-10-07T07:04:02.156Z,100511.47
2022-10-07T07:05:03.863Z,100519.28
2022-10-07T07:06:06.876Z,100511.06
2022-10-07T07:07:09.351Z,100509.16
2022-10-07T07:08:11.240Z,100505.81
2022-10-07T07:09:12.720Z,100517.13
2022-10-07T07:10:16.780Z,100506.94
2022-10-07T07:11:21.339Z,100503.16
2022-10-07T07:12:23.017Z,100509.94
2022-10-07T07:13:24.490Z,100509.25
2022-10-07T07:14:25.992Z,100500.31
2022-10-07T07:15:37.112Z,100502.66
2022-10-07T07:16:38.811Z,100498.97
2022-10-07T07:17:40.284Z,100505.03
2022-10-07T07:18:43.780Z,100504.81
2022-10-07T07:19:45.552Z,100508.69
2022-10-07T07:20:47.028Z,100500.34
2022-10-07T07:21:50.547Z,100506.53
2022-10-07T07:22:54.505Z,100501.94
2022-10-07T07:23:56.355Z,100499.59
2022-10-07T07:24:57.797Z,100500.09
2022-10-07T07:26:00.831Z,100493.38
2022-10-07T07:27:02.727Z,100491.13
2022-10-07T07:28:07.778Z,100504.00
2022-10-07T07:29:11.726Z,100498.72
2022-10-07T07:30:19.006Z,100498.84
2022-10-07T07:31:20.942Z,100495.59
2022-10-07T07:32:22.406Z,100500.19
2022-10-07T07:33:23.948Z,100504.75
2022-10-07T07:34:25.787Z,100499.56
2022-10-07T07:35:29.919Z,100496.38
2022-10-07T07:36:33.919Z,100491.19
2022-10-07T07:37:35.375Z,100495.06
2022-10-07T07:38:37.249Z,100494.19
2022-10-07T07:39:38.721Z,100493.22
2022-10-07T07:40:44.816Z,100492.88
2022-10-07T07:41:47.091Z,100487.56
2022-10-07T07:42:50.911Z,100490.09
2022-10-07T07:43:54.759Z,100488.28
2022-10-07T07:44:58.258Z,100489.84
2022-10-07T07:45:59.746Z,100481.66
2022-10-07T07:47:01.191Z,100481.28
2022-10-07T07:48:03.573Z,100474.91
2022-10-07T07:49:06.884Z,100477.41
2022-10-07T07:50:08.888Z,100480.03
2022-10-07T07:51:10.380Z,100483.19
2022-10-07T07:52:12.154Z,100483.25
2022-10-07T07:53:17.694Z,100483.53
2022-10-07T07:54:19.245Z,100476.16
2022-10-07T07:55:23.669Z,100469.34
2022-10-07T07:56:25.845Z,100464.25
2022-10-07T07:57:28.371Z,100477.53
2022-10-07T07:58:32.095Z,100466.63
2022-10-07T07:59:34.537Z,100463.91
2022-10-07T08:00:35.976Z,100467.88
2022-10-07T08:01:39.846Z,100464.44
2022-10-07T08:02:42.894Z,100459.41
2022-10-07T08:03:49.457Z,100461.78
2022-10-07T08:04:50.936Z,100455.97
2022-10-07T08:05:53.160Z,100462.66
2022-10-07T08:06:54.691Z,100458.63
2022-10-07T08:07:56.998Z,100459.03
2022-10-07T08:09:00.131Z,100466.06
2022-10-07T08:10:02.349Z,100468.25
2022-10-07T08:11:08.671Z,100460.72
2022-10-07T08:12:10.126Z,100462.00
2022-10-07T08:13:11.607Z,100472.19
2022-10-07T08:14:14.560Z,100471.63
2022-10-07T08:15:16.212Z,100467.88
2022-10-07T08:16:19.997Z,100460.63
2022-10-07T08:17:22.156Z,100456.31
2022-10-07T08:18:23.824Z,100457.56
2022-10-07T08:19:26.288Z,100451.00
2022-10-07T08:20:28.169Z,100446.16
2022-10-07T08:21:30.088Z,100445.19
2022-10-07T08:22:32.703Z,100448.31
2022-10-07T08:23:35.262Z,100444.91
2022-10-07T08:24:36.688Z,100442.34
2022-10-07T08:25:38.705Z,100442.09
2022-10-07T08:26:41.628Z,100440.16
2022-10-07T08:27:46.352Z,100441.72
2022-10-07T08:28:47.959Z,100439.34
2022-10-07T08:29:49.635Z,100441.72
2022-10-07T08:30:51.844Z,100444.91
2022-10-07T08:31:53.322Z,100444.91
2022-10-07T08:32:59.026Z,100444.34
2022-10-07T08:34:04.023Z,100447.47
2022-10-07T08:35:05.570Z,100434.47
2022-10-07T08:36:08.808Z,100430.72
2022-10-07T08:37:10.219Z,100436.88
2022-10-07T08:38:14.520Z,100435.19
2022-10-07T08:39:16.326Z,100437.84
2022-10-07T08:40:17.758Z,100433.09
2022-10-07T08:41:31.467Z,100436.56
2022-10-07T08:42:39.231Z,100442.28
2022-10-07T08:43:45.935Z,100431.78
2022-10-07T08:44:50.399Z,100429.69
2022-10-07T08:45:52.946Z,100431.34
2022-10-07T08:46:56.439Z,100428.84
2022-10-07T08:48:02.328Z,100439.34
2022-10-07T08:49:14.967Z,100428.75
2022-10-07T08:50:23.547Z,100429.31
2022-10-07T08:51:33.065Z,100424.00
2022-10-07T08:52:44.901Z,100423.72
2022-10-07T08:53:50.755Z,100425.38
2022-10-07T08:54:53.041Z,100426.81
2022-10-07T08:56:00.045Z,100424.00
2022-10-07T08:57:14.287Z,100428.19
2022-10-07T08:58:47.348Z,100423.16
2022-10-07T08:59:53.856Z,100424.00
2022-10-07T09:01:03.283Z,100418.97
2022-10-07T09:02:49.626Z,100418.81
2022-10-07T09:04:28.298Z,100406.94
2022-10-07T09:05:36.618Z,100403.06
2022-10-07T09:06:50.474Z,100403.44
2022-10-07T09:07:56.176Z,100413.06
2022-10-07T09:09:18.030Z,100407.16
2022-10-07T09:10:40.364Z,100402.75
2022-10-07T09:11:45.601Z,100400.47
2022-10-07T09:12:53.121Z,100405.22
2022-10-07T09:14:01.145Z,100406.56
2022-10-07T09:15:05.483Z,100397.75
2022-10-07T09:16:13.878Z,100400.22
2022-10-07T09:17:37.987Z,100394.09
2022-10-07T09:18:43.840Z,100391.56
2022-10-07T09:19:49.731Z,100396.88
2022-10-07T09:20:53.875Z,100389.06
2022-10-07T09:22:02.459Z,100383.84
2022-10-07T09:23:05.501Z,100393.09
2022-10-07T09:24:20.005Z,100381.22
2022-10-07T09:25:24.519Z,100382.72
2022-10-07T09:26:26.370Z,100392.53
2022-10-07T09:27:27.780Z,100391.09
2022-10-07T09:28:32.602Z,100384.63
2022-10-07T09:29:35.854Z,100379.47
2022-10-07T09:30:37.327Z,100382.50
2022-10-07T09:31:38.978Z,100386.84
2022-10-07T09:32:43.723Z,100386.84
2022-10-07T09:33:46.635Z,100379.53
2022-10-07T09:34:48.765Z,100375.81
2022-10-07T09:36:12.271Z,100374.31
2022-10-07T09:37:23.525Z,100375.00
2022-10-07T09:38:50.590Z,100372.16
2022-10-07T09:39:54.424Z,100372.31
2022-10-07T09:41:07.440Z,100365.41
2022-10-07T09:42:22.115Z,100372.41
2022-10-07T09:43:23.931Z,100364.50
2022-10-07T09:44:27.259Z,100361.31
2022-10-07T09:45:33.199Z,100356.91
2022-10-07T09:46:46.179Z,100358.19
2022-10-07T09:47:56.635Z,100355.78
2022-10-07T09:48:59.582Z,100360.41
2022-10-07T09:50:00.985Z,100361.50
2022-10-07T09:51:14.787Z,100357.66
2022-10-07T09:52:24.228Z,100355.22
2022-10-07T09:53:27.793Z,100354.22
2022-10-07T09:54:31.489Z,100351.50
2022-10-07T09:55:41.172Z,100350.50
2022-10-07T09:56:45.115Z,100344.75
2022-10-07T09:57:59.640Z,100349.38
2022-10-07T09:59:18.084Z,100348.09
2022-10-07T10:00:27.136Z,100342.75
2022-10-07T10:01:28.605Z,100341.75
2022-10-07T10:02:31.330Z,100341.28
2022-10-07T10:03:36.199Z,100338.63
2022-10-07T10:04:46.968Z,100340.31
2022-10-07T10:05:55.904Z,100330.31
2022-10-07T10:07:03.409Z,100332.78
2022-10-07T10:08:19.167Z,100334.50
2022-10-07T10:09:23.548Z,100331.66
2022-10-07T10:10:30.983Z,100333.56
2022-10-07T10:11:32.449Z,100327.06
2022-10-07T10:12:44.983Z,100329.00
2022-10-07T10:13:49.799Z,100326.75
2022-10-07T10:14:51.214Z,100328.59
2022-10-07T10:15:52.688Z,100321.59
2022-10-07T10:16:54.149Z,100323.75
2022-10-07T10:17:57.029Z,100316.53
2022-10-07T10:19:00.719Z,100317.69
2022-10-07T10:20:23.858Z,100323.47
2022-10-07T10:21:32.901Z,100317.00
2022-10-07T10:22:34.299Z,100315.06
2022-10-07T10:23:38.435Z,100308.75
2022-10-07T10:24:39.990Z,100314.81
2022-10-07T10:25:51.471Z,100312.69
2022-10-07T10:27:02.384Z,100305.72
2022-10-07T10:28:13.264Z,100298.91
2022-10-07T10:29:23.786Z,100304.94
2022-10-07T10:30:25.744Z,100296.47
2022-10-07T10:31:45.450Z,100295.97
2022-10-07T10:33:25.004Z,100296.78
2022-10-07T10:34:32.324Z,100286.97
2022-10-07T10:36:04.427Z,100287.50
2022-10-07T10:37:19.065Z,100281.31
2022-10-07T10:38:33.422Z,100279.50
2022-10-07T10:39:50.194Z,100275.47
2022-10-07T10:41:19.889Z,100283.81
2022-10-07T10:42:33.681Z,100275.78
2022-10-07T10:43:56.239Z,100278.47
2022-10-07T10:45:14.526Z,100273.81
2022-10-07T10:46:30.754Z,100274.00
2022-10-07T10:47:35.287Z,100266.47
2022-10-07T10:48:53.429Z,100267.66
2022-10-07T10:50:10.145Z,100260.81
2022-10-07T10:51:36.503Z,100259.97
2022-10-07T10:53:04.367Z,100264.47
2022-10-07T10:54:30.176Z,100262.63
2022-10-07T10:56:01.302Z,100256.66
2022-10-07T10:57:20.651Z,100257.31
2022-10-07T10:58:46.334Z,100258.13
2022-10-07T11:00:15.664Z,100252.97
2022-10-07T11:01:30.687Z,100251.63
2022-10-07T11:02:38.387Z,100248.63
2022-10-07T11:04:08.020Z,100244.97
2022-10-07T11:05:34.032Z,100239.28
2022-10-07T11:06:39.097Z,100229.78
2022-10-07T11:07:47.113Z,100233.59
2022-10-07T11:08:50.869Z,100230.06
2022-10-07T11:09:57.275Z,100232.22
2022-10-07T11:11:00.919Z,100226.38
2022-10-07T11:12:06.813Z,100224.88
2022-10-07T11:13:21.640Z,100211.97
2022-10-07T11:14:25.645Z,100214.59
2022-10-07T11:15:35.006Z,100213.59
2022-10-07T11:16:42.050Z,100210.13
2022-10-07T11:17:46.228Z,100210.34
2022-10-07T11:18:53.364Z,100211.00
2022-10-07T11:20:12.227Z,100213.50
2022-10-07T11:21:21.903Z,100209.47
2022-10-07T11:22:34.639Z,100202.78
2022-10-07T11:23:58.338Z,100199.09
2022-10-07T11:25:08.769Z,100197.91
2022-10-07T11:26:25.802Z,100193.25
2022-10-07T11:27:31.418Z,100183.91
2022-10-07T11:28:36.422Z,100179.72
2022-10-07T11:30:06.993Z,100187.38
2022-10-07T11:31:33.449Z,100184.97
2022-10-07T11:32:44.530Z,100178.09
2022-10-07T11:34:00.362Z,100177.59
2022-10-07T11:35:16.874Z,100177.94
2022-10-07T11:36:44.214Z,100168.53
2022-10-07T11:38:03.140Z,100160.22
2022-10-07T11:39:04.539Z,100168.22
2022-10-07T11:40:07.286Z,100163.47
2022-10-07T11:41:31.072Z,100155.44
2022-10-07T11:42:39.647Z,100155.91
2022-10-07T11:43:46.291Z,100154.75
2022-10-07T11:45:04.120Z,100149.03
2022-10-07T11:46:15.913Z,100142.13
2022-10-07T11:47:23.074Z,100147.75
2022-10-07T11:48:36.210Z,100149.75
2022-10-07T11:49:45.998Z,100150.56
2022-10-07T11:50:54.553Z,100149.44
2022-10-07T11:52:19.508Z,100140.94
2022-10-07T11:53:25.755Z,100140.38
2022-10-07T11:54:31.720Z,100146.22
2022-10-07T11:55:41.377Z,100144.91
2022-10-07T11:56:50.224Z,100136.78
2022-10-07T11:57:59.101Z,100129.69
2022-10-07T11:59:03.901Z,100127.97
2022-10-07T12:00:36.662Z,100130.91
2022-10-07T12:01:46.609Z,100124.34
2022-10-07T12:02:48.951Z,100125.88
2022-10-07T12:03:52.200Z,100114.91
2022-10-07T12:04:57.985Z,100125.84
2022-10-07T12:06:10.250Z,100120.50
2022-10-07T12:07:38.142Z,100112.97
2022-10-07T12:08:42.084Z,100113.25
2022-10-07T12:09:54.708Z,100104.03
2022-10-07T12:11:16.033Z,100107.31
2022-10-07T12:12:22.549Z,100111.88
2022-10-07T12:13:23.907Z,100105.16
2022-10-07T12:14:34.244Z,100104.78
2022-10-07T12:15:41.191Z,100104.97
2022-10-07T12:16:54.499Z,100104.44
2022-10-07T12:18:05.227Z,100107.03
2022-10-07T12:19:06.603Z,100101.75
2022-10-07T12:20:45.416Z,100101.03
2022-10-07T12:22:01.716Z,100096.88
2022-10-07T12:23:18.549Z,100096.88
2022-10-07T12:24:20.005Z,100096.88
2022-10-07T12:25:30.283Z,100089.50
2022-10-07T12:26:43.380Z,100097.63
2022-10-07T12:27:46.024Z,100089.06
2022-10-07T12:28:47.636Z,100092.69
2022-10-07T12:29:55.818Z,100082.53
2022-10-07T12:31:03.166Z,100088.34
2022-10-07T12:32:43.272Z,100079.94
2022-10-07T12:33:44.896Z,100085.31
2022-10-07T12:34:46.350Z,100084.91
2022-10-07T12:35:53.041Z,100082.31
2022-10-07T12:37:34.728Z,100077.44
2022-10-07T12:38:36.294Z,100076.25
2022-10-07T12:39:38.429Z,100071.63
2022-10-07T12:40:42.019Z,100076.16
2022-10-07T12:41:45.926Z,100066.47